San Leandro — WCW8516 — position and weather

sailwx.info

Track history (hours):
 
Tides and Currents Weather Stations Pressure Air Temp Water Temp Dewpoint Dewpoint Depression Visibility Wind Speed Wind Dir Waves Ship Positions

San Leandro

Owner: BUFALO MARINE SERVICE INC, HOUSTON, TX. More information available from US FCC via Universal Licensing System and Coast Guard Vessel Documentation Center.

Last reported at 2018-Feb-23 02:20 UTC. Time now 2018-Feb-23 02:45 UTC.
Position N 29°45' W 095°06'.

Length 22 m; draft 3.4 m.

Type: Tug. MMSI: 366941850.

Date/timePositionNaut miles runAvg speedWind from/ knotsBaromVisibWave heightAir tempDewpointWater temp
2018-Feb-23 02:20N 29°45' W 095°06'0 0.0
2018-Feb-23 01:59N 29°45' W 095°06'0 0.0
2018-Feb-23 01:29N 29°45' W 095°06'0 0.0
2018-Feb-23 00:58N 29°45' W 095°06'0 0.0
2018-Feb-23 00:28N 29°45' W 095°06'0 0.0
2018-Feb-23 00:00N 29°45' W 095°06'0 0.0
2018-Feb-22 23:28N 29°45' W 095°06'0 0.0
2018-Feb-22 23:01N 29°45' W 095°06'0 0.0
2018-Feb-22 22:30N 29°45' W 095°06'0 0.0
2018-Feb-22 05:35N 29°45' W 095°06'0 2.4
2018-Feb-22 05:29N 29°45' W 095°06'6 5.4
2018-Feb-22 04:18N 29°43' W 095°13'3 0.1
2018-Feb-20 23:56N 29°45' W 095°10'3 2.2
2018-Feb-20 22:27N 29°45' W 095°06'0 0.0
2018-Feb-20 22:00N 29°45' W 095°06'0 0.0
2018-Feb-20 17:18N 29°45' W 095°06'0 0.8
2018-Feb-20 16:59N 29°45' W 095°06'9 3.0
2018-Feb-20 13:57N 29°43' W 095°17'2 0.1
2018-Feb-19 15:01N 29°43' W 095°15'0 7.5
2018-Feb-19 14:58N 29°43' W 095°14'4 7.1
2018-Feb-19 14:25N 29°45' W 095°10'3 7.6
2018-Feb-19 13:59N 29°45' W 095°06'3 5.3
2018-Feb-19 13:30N 29°44' W 095°03'3 6.9
2018-Feb-19 13:00N 29°42' W 095°00'4 7.8
2018-Feb-19 12:30N 29°39' W 094°58'4 8.3
2018-Feb-19 12:00N 29°35' W 094°56'4 8.6
2018-Feb-19 11:30N 29°31' W 094°53'4 8.9
2018-Feb-19 11:00N 29°27' W 094°51'6 9.2
2018-Feb-19 10:22N 29°22' W 094°48'3 8.9
2018-Feb-19 10:00N 29°21' W 094°45'0 0.8
2018-Feb-19 09:27N 29°21' W 094°45'0 0.0
2018-Feb-19 09:00N 29°21' W 094°45'0 0.0
2018-Feb-19 08:23N 29°21' W 094°45'0 0.0
2018-Feb-19 08:00N 29°21' W 094°45'0 0.0
2018-Feb-19 07:29N 29°21' W 094°45'0 0.0
2018-Feb-19 06:59N 29°21' W 094°44'0 0.0
2018-Feb-19 05:34N 29°21' W 094°44'0 0.0
2018-Feb-19 05:29N 29°21' W 094°44'0 0.0
2018-Feb-19 05:00N 29°21' W 094°44'9 2.2
2018-Feb-19 01:08N 29°28' W 094°51'1 7.4
2018-Feb-19 00:59N 29°28' W 094°51'4 7.4
2018-Feb-19 00:30N 29°32' W 094°53'4 7.7
2018-Feb-18 23:59N 29°35' W 094°56'4 7.7
2018-Feb-18 23:30N 29°38' W 094°58'4 8.3
2018-Feb-18 23:00N 29°42' W 095°00'4 7.3
2018-Feb-18 22:29N 29°44' W 095°03'3 2.7
2018-Feb-18 21:20N 29°44' W 095°07'0 0.0
2018-Feb-18 20:59N 29°44' W 095°07'0 0.0
2018-Feb-18 20:29N 29°44' W 095°07'0 0.0
2018-Feb-18 17:18N 29°44' W 095°07'0 0.0
2018-Feb-18 15:39N 29°44' W 095°07'0 0.0
2018-Feb-18 14:05N 29°44' W 095°07'0 0.0
2018-Feb-18 13:47N 29°44' W 095°07'1 0.2
2018-Feb-18 07:41N 29°45' W 095°06'0 0.0
2018-Feb-18 07:19N 29°45' W 095°06'0 0.0
2018-Feb-18 06:57N 29°45' W 095°06'0 0.1
2018-Feb-18 02:56N 29°45' W 095°06'0 0.0
2018-Feb-18 00:00N 29°45' W 095°06'0 0.0
2018-Feb-17 23:26N 29°45' W 095°06'0 0.0
2018-Feb-17 22:57N 29°45' W 095°06'0 0.0
2018-Feb-17 22:26N 29°45' W 095°06'0 0.1
2018-Feb-17 21:48N 29°45' W 095°06'10 0.4
2018-Feb-16 18:35N 29°45' W 095°17'0 0.0
2018-Feb-16 18:19N 29°45' W 095°17'0 0.0
2018-Feb-16 17:58N 29°45' W 095°17'0 0.0
2018-Feb-16 16:02N 29°45' W 095°17'0 0.0
2018-Feb-16 15:48N 29°45' W 095°17'0 0.0
2018-Feb-16 15:19N 29°45' W 095°17'0 0.0
2018-Feb-16 13:57N 29°45' W 095°17'2 0.1
2018-Feb-16 01:03N 29°44' W 095°16'0 1.4
2018-Feb-16 00:59N 29°43' W 095°16'0 0.0
2018-Feb-15 15:38N 29°44' W 095°16'4 3.1
2018-Feb-15 14:10N 29°45' W 095°11'1 5.6
2018-Feb-15 14:00N 29°45' W 095°10'2 0.4
2018-Feb-15 08:27N 29°44' W 095°08'0 0.0
2018-Feb-15 07:57N 29°44' W 095°08'0 0.0
2018-Feb-15 07:30N 29°44' W 095°08'0 0.0
2018-Feb-15 06:51N 29°44' W 095°08'0 0.0
2018-Feb-15 06:30N 29°44' W 095°08'0 0.0
2018-Feb-15 06:00N 29°44' W 095°08'0 0.0
2018-Feb-15 05:30N 29°44' W 095°08'0 0.0
2018-Feb-15 04:58N 29°44' W 095°08'0 0.0
2018-Feb-15 04:24N 29°44' W 095°08'  
Track history (hours):
 
Tides and Currents Weather Stations Pressure Air Temp Water Temp Dewpoint Dewpoint Depression Visibility Wind Speed Wind Dir Waves Ship Positions

San Leandro

Owner: BUFALO MARINE SERVICE INC, HOUSTON, TX. More information available from US FCC via Universal Licensing System and Coast Guard Vessel Documentation Center.

Last reported at 2018-Feb-23 02:20 UTC. Time now 2018-Feb-23 02:45 UTC.
Position N 29°45' W 095°06'.

Length 22 m; draft 3.4 m.

Type: Tug. MMSI: 366941850.

Date/timePositionNaut miles runAvg speedWind from/ knotsBaromVisibWave heightAir tempDewpointWater temp
2018-Feb-23 02:20N 29°45' W 095°06'0 0.0
2018-Feb-23 01:59N 29°45' W 095°06'0 0.0
2018-Feb-23 01:29N 29°45' W 095°06'0 0.0
2018-Feb-23 00:58N 29°45' W 095°06'0 0.0
2018-Feb-23 00:28N 29°45' W 095°06'0 0.0
2018-Feb-23 00:00N 29°45' W 095°06'0 0.0
2018-Feb-22 23:28N 29°45' W 095°06'0 0.0
2018-Feb-22 23:01N 29°45' W 095°06'0 0.0
2018-Feb-22 22:30N 29°45' W 095°06'0 0.0
2018-Feb-22 05:35N 29°45' W 095°06'0 2.4
2018-Feb-22 05:29N 29°45' W 095°06'6 5.4
2018-Feb-22 04:18N 29°43' W 095°13'3 0.1
2018-Feb-20 23:56N 29°45' W 095°10'3 2.2
2018-Feb-20 22:27N 29°45' W 095°06'0 0.0
2018-Feb-20 22:00N 29°45' W 095°06'0 0.0
2018-Feb-20 17:18N 29°45' W 095°06'0 0.8
2018-Feb-20 16:59N 29°45' W 095°06'9 3.0
2018-Feb-20 13:57N 29°43' W 095°17'2 0.1
2018-Feb-19 15:01N 29°43' W 095°15'0 7.5
2018-Feb-19 14:58N 29°43' W 095°14'4 7.1
2018-Feb-19 14:25N 29°45' W 095°10'3 7.6
2018-Feb-19 13:59N 29°45' W 095°06'3 5.3
2018-Feb-19 13:30N 29°44' W 095°03'3 6.9
2018-Feb-19 13:00N 29°42' W 095°00'4 7.8
2018-Feb-19 12:30N 29°39' W 094°58'4 8.3
2018-Feb-19 12:00N 29°35' W 094°56'4 8.6
2018-Feb-19 11:30N 29°31' W 094°53'4 8.9
2018-Feb-19 11:00N 29°27' W 094°51'6 9.2
2018-Feb-19 10:22N 29°22' W 094°48'3 8.9
2018-Feb-19 10:00N 29°21' W 094°45'0 0.8
2018-Feb-19 09:27N 29°21' W 094°45'0 0.0
2018-Feb-19 09:00N 29°21' W 094°45'0 0.0
2018-Feb-19 08:23N 29°21' W 094°45'0 0.0
2018-Feb-19 08:00N 29°21' W 094°45'0 0.0
2018-Feb-19 07:29N 29°21' W 094°45'0 0.0
2018-Feb-19 06:59N 29°21' W 094°44'0 0.0
2018-Feb-19 05:34N 29°21' W 094°44'0 0.0
2018-Feb-19 05:29N 29°21' W 094°44'0 0.0
2018-Feb-19 05:00N 29°21' W 094°44'9 2.2
2018-Feb-19 01:08N 29°28' W 094°51'1 7.4
2018-Feb-19 00:59N 29°28' W 094°51'4 7.4
2018-Feb-19 00:30N 29°32' W 094°53'4 7.7
2018-Feb-18 23:59N 29°35' W 094°56'4 7.7
2018-Feb-18 23:30N 29°38' W 094°58'4 8.3
2018-Feb-18 23:00N 29°42' W 095°00'4 7.3
2018-Feb-18 22:29N 29°44' W 095°03'3 2.7
2018-Feb-18 21:20N 29°44' W 095°07'0 0.0
2018-Feb-18 20:59N 29°44' W 095°07'0 0.0
2018-Feb-18 20:29N 29°44' W 095°07'0 0.0
2018-Feb-18 17:18N 29°44' W 095°07'0 0.0
2018-Feb-18 15:39N 29°44' W 095°07'0 0.0
2018-Feb-18 14:05N 29°44' W 095°07'0 0.0
2018-Feb-18 13:47N 29°44' W 095°07'1 0.2
2018-Feb-18 07:41N 29°45' W 095°06'0 0.0
2018-Feb-18 07:19N 29°45' W 095°06'0 0.0
2018-Feb-18 06:57N 29°45' W 095°06'0 0.1
2018-Feb-18 02:56N 29°45' W 095°06'0 0.0
2018-Feb-18 00:00N 29°45' W 095°06'0 0.0
2018-Feb-17 23:26N 29°45' W 095°06'0 0.0
2018-Feb-17 22:57N 29°45' W 095°06'0 0.0
2018-Feb-17 22:26N 29°45' W 095°06'0 0.1
2018-Feb-17 21:48N 29°45' W 095°06'10 0.4
2018-Feb-16 18:35N 29°45' W 095°17'0 0.0
2018-Feb-16 18:19N 29°45' W 095°17'0 0.0
2018-Feb-16 17:58N 29°45' W 095°17'0 0.0
2018-Feb-16 16:02N 29°45' W 095°17'0 0.0
2018-Feb-16 15:48N 29°45' W 095°17'0 0.0
2018-Feb-16 15:19N 29°45' W 095°17'0 0.0
2018-Feb-16 13:57N 29°45' W 095°17'2 0.1
2018-Feb-16 01:03N 29°44' W 095°16'0 1.4
2018-Feb-16 00:59N 29°43' W 095°16'0 0.0
2018-Feb-15 15:38N 29°44' W 095°16'4 3.1
2018-Feb-15 14:10N 29°45' W 095°11'1 5.6
2018-Feb-15 14:00N 29°45' W 095°10'2 0.4
2018-Feb-15 08:27N 29°44' W 095°08'0 0.0
2018-Feb-15 07:57N 29°44' W 095°08'0 0.0
2018-Feb-15 07:30N 29°44' W 095°08'0 0.0
2018-Feb-15 06:51N 29°44' W 095°08'0 0.0
2018-Feb-15 06:30N 29°44' W 095°08'0 0.0
2018-Feb-15 06:00N 29°44' W 095°08'0 0.0
2018-Feb-15 05:30N 29°44' W 095°08'0 0.0
2018-Feb-15 04:58N 29°44' W 095°08'0 0.0
2018-Feb-15 04:24N 29°44' W 095°08'  

Dump ship's entire track history